sensor_id;sensor_type;location;lat;lon;timestamp;pressure;altitude;pressure_sealevel;temperature;humidity
19526;BME280;9907;42.676;26.348;2023-04-04T00:01:23;97822.06;;;11.48;100.00
19526;BME280;9907;42.676;26.348;2023-04-04T00:03:49;97827.56;;;11.46;100.00
19526;BME280;9907;42.676;26.348;2023-04-04T00:06:19;97856.97;;;11.54;100.00
19526;BME280;9907;42.676;26.348;2023-04-04T00:08:45;97803.00;;;11.51;100.00
19526;BME280;9907;42.676;26.348;2023-04-04T00:11:10;97793.16;;;11.43;100.00
19526;BME280;9907;42.676;26.348;2023-04-04T00:13:37;97812.56;;;11.45;100.00
19526;BME280;9907;42.676;26.348;2023-04-04T00:16:03;97801.31;;;11.50;100.00
19526;BME280;9907;42.676;26.348;2023-04-04T00:18:28;97801.50;;;11.48;100.00
19526;BME280;9907;42.676;26.348;2023-04-04T00:20:54;97916.66;;;11.39;100.00
19526;BME280;9907;42.676;26.348;2023-04-04T00:23:20;97819.63;;;11.30;100.00
19526;BME280;9907;42.676;26.348;2023-04-04T00:25:52;97804.94;;;11.26;100.00
19526;BME280;9907;42.676;26.348;2023-04-04T00:28:18;97813.44;;;11.30;100.00
19526;BME280;9907;42.676;26.348;2023-04-04T00:30:43;97780.69;;;11.28;100.00
19526;BME280;9907;42.676;26.348;2023-04-04T00:33:09;97818.94;;;11.36;100.00
19526;BME280;9907;42.676;26.348;2023-04-04T00:35:34;97828.41;;;11.55;100.00
19526;BME280;9907;42.676;26.348;2023-04-04T00:38:01;97840.56;;;11.65;100.00
19526;BME280;9907;42.676;26.348;2023-04-04T00:40:26;97812.00;;;11.58;100.00
19526;BME280;9907;42.676;26.348;2023-04-04T00:42:52;97832.88;;;11.62;100.00
19526;BME280;9907;42.676;26.348;2023-04-04T00:45:18;97848.25;;;11.60;100.00
19526;BME280;9907;42.676;26.348;2023-04-04T00:47:44;97854.28;;;11.62;100.00
19526;BME280;9907;42.676;26.348;2023-04-04T00:50:09;97852.22;;;11.81;100.00
19526;BME280;9907;42.676;26.348;2023-04-04T00:52:35;97888.03;;;11.71;100.00
19526;BME280;9907;42.676;26.348;2023-04-04T00:55:01;97851.59;;;11.62;100.00
19526;BME280;9907;42.676;26.348;2023-04-04T00:57:28;97849.50;;;11.42;100.00
19526;BME280;9907;42.676;26.348;2023-04-04T00:59:56;97856.06;;;11.23;100.00
19526;BME280;9907;42.676;26.348;2023-04-04T01:02:23;97849.69;;;11.16;100.00
19526;BME280;9907;42.676;26.348;2023-04-04T01:04:49;97849.38;;;11.19;100.00
19526;BME280;9907;42.676;26.348;2023-04-04T01:07:15;97849.38;;;11.11;100.00
19526;BME280;9907;42.676;26.348;2023-04-04T01:09:41;97854.75;;;10.95;100.00
19526;BME280;9907;42.676;26.348;2023-04-04T01:12:07;97843.75;;;10.82;100.00
19526;BME280;9907;42.676;26.348;2023-04-04T01:14:33;97839.72;;;10.69;100.00
19526;BME280;9907;42.676;26.348;2023-04-04T01:16:58;97845.22;;;10.68;100.00
19526;BME280;9907;42.676;26.348;2023-04-04T01:19:32;97830.72;;;10.70;100.00
19526;BME280;9907;42.676;26.348;2023-04-04T01:22:00;97818.84;;;10.65;100.00
19526;BME280;9907;42.676;26.348;2023-04-04T01:24:27;97836.41;;;10.67;100.00
19526;BME280;9907;42.676;26.348;2023-04-04T01:26:55;97834.53;;;10.68;100.00
19526;BME280;9907;42.676;26.348;2023-04-04T01:29:20;97848.72;;;10.68;100.00
19526;BME280;9907;42.676;26.348;2023-04-04T01:31:59;97827.88;;;10.72;100.00
19526;BME280;9907;42.676;26.348;2023-04-04T01:37:08;97831.22;;;10.66;100.00
19526;BME280;9907;42.676;26.348;2023-04-04T01:42:10;97819.69;;;10.65;100.00
19526;BME280;9907;42.676;26.348;2023-04-04T01:44:37;97847.06;;;10.59;100.00
19526;BME280;9907;42.676;26.348;2023-04-04T01:47:05;97836.31;;;10.11;100.00
19526;BME280;9907;42.676;26.348;2023-04-04T01:49:32;97847.94;;;10.02;100.00
19526;BME280;9907;42.676;26.348;2023-04-04T01:51:58;97845.94;;;9.96;100.00
19526;BME280;9907;42.676;26.348;2023-04-04T01:54:24;97846.88;;;9.87;100.00
19526;BME280;9907;42.676;26.348;2023-04-04T01:56:52;97852.22;;;9.78;100.00
19526;BME280;9907;42.676;26.348;2023-04-04T01:59:17;97862.31;;;9.67;100.00
19526;BME280;9907;42.676;26.348;2023-04-04T02:01:43;97865.84;;;9.67;100.00
19526;BME280;9907;42.676;26.348;2023-04-04T02:04:09;97882.78;;;9.58;100.00
19526;BME280;9907;42.676;26.348;2023-04-04T02:06:37;97864.56;;;9.54;100.00
19526;BME280;9907;42.676;26.348;2023-04-04T02:09:02;97874.66;;;9.34;100.00
19526;BME280;9907;42.676;26.348;2023-04-04T02:11:28;97868.31;;;9.35;100.00
19526;BME280;9907;42.676;26.348;2023-04-04T02:13:53;97868.47;;;9.34;100.00
19526;BME280;9907;42.676;26.348;2023-04-04T02:16:19;97868.91;;;9.21;100.00
19526;BME280;9907;42.676;26.348;2023-04-04T02:18:45;97873.56;;;9.19;100.00
19526;BME280;9907;42.676;26.348;2023-04-04T02:21:10;97869.34;;;9.16;100.00
19526;BME280;9907;42.676;26.348;2023-04-04T02:23:36;97865.03;;;9.15;100.00
19526;BME280;9907;42.676;26.348;2023-04-04T02:26:03;97862.63;;;9.04;100.00
19526;BME280;9907;42.676;26.348;2023-04-04T02:28:29;97870.09;;;9.01;100.00
19526;BME280;9907;42.676;26.348;2023-04-04T02:30:59;97946.28;;;8.94;100.00
19526;BME280;9907;42.676;26.348;2023-04-04T02:33:26;97937.91;;;8.89;100.00
19526;BME280;9907;42.676;26.348;2023-04-04T02:35:51;97955.56;;;8.90;100.00
19526;BME280;9907;42.676;26.348;2023-04-04T02:38:17;97939.38;;;8.83;100.00
19526;BME280;9907;42.676;26.348;2023-04-04T02:40:44;97960.38;;;8.86;100.00
19526;BME280;9907;42.676;26.348;2023-04-04T02:43:09;97943.03;;;8.82;100.00
19526;BME280;9907;42.676;26.348;2023-04-04T02:45:35;97937.84;;;8.80;100.00
19526;BME280;9907;42.676;26.348;2023-04-04T02:48:01;97821.06;;;8.86;100.00
19526;BME280;9907;42.676;26.348;2023-04-04T02:50:27;97817.25;;;8.88;100.00
19526;BME280;9907;42.676;26.348;2023-04-04T02:53:01;97813.75;;;8.88;100.00
19526;BME280;9907;42.676;26.348;2023-04-04T02:55:27;97812.38;;;8.84;100.00
19526;BME280;9907;42.676;26.348;2023-04-04T02:57:52;97810.22;;;8.87;100.00
19526;BME280;9907;42.676;26.348;2023-04-04T03:00:18;97811.78;;;8.90;100.00
19526;BME280;9907;42.676;26.348;2023-04-04T03:02:43;97816.41;;;8.88;100.00
19526;BME280;9907;42.676;26.348;2023-04-04T03:05:10;97814.50;;;8.98;100.00
19526;BME280;9907;42.676;26.348;2023-04-04T03:07:35;97803.16;;;8.96;100.00
19526;BME280;9907;42.676;26.348;2023-04-04T03:10:01;97802.47;;;8.94;100.00
19526;BME280;9907;42.676;26.348;2023-04-04T03:12:27;97795.94;;;8.88;100.00
19526;BME280;9907;42.676;26.348;2023-04-04T03:14:52;97797.75;;;8.88;100.00
19526;BME280;9907;42.676;26.348;2023-04-04T03:17:18;97795.16;;;8.96;100.00
19526;BME280;9907;42.676;26.348;2023-04-04T03:19:43;97799.63;;;8.95;100.00
19526;BME280;9907;42.676;26.348;2023-04-04T03:22:10;97801.78;;;8.92;100.00
19526;BME280;9907;42.676;26.348;2023-04-04T03:24:35;97807.50;;;8.97;100.00
19526;BME280;9907;42.676;26.348;2023-04-04T03:27:01;97811.81;;;8.98;100.00
19526;BME280;9907;42.676;26.348;2023-04-04T03:29:27;97808.78;;;8.93;100.00
19526;BME280;9907;42.676;26.348;2023-04-04T03:31:52;97822.94;;;8.93;100.00
19526;BME280;9907;42.676;26.348;2023-04-04T03:34:18;97811.59;;;8.91;100.00
19526;BME280;9907;42.676;26.348;2023-04-04T03:36:43;97816.09;;;8.91;100.00
19526;BME280;9907;42.676;26.348;2023-04-04T03:39:11;97815.09;;;8.92;100.00
19526;BME280;9907;42.676;26.348;2023-04-04T03:41:36;97822.41;;;8.90;100.00
19526;BME280;9907;42.676;26.348;2023-04-04T03:44:03;97809.72;;;8.84;100.00
19526;BME280;9907;42.676;26.348;2023-04-04T03:46:29;97805.09;;;8.86;100.00
19526;BME280;9907;42.676;26.348;2023-04-04T03:48:54;97810.72;;;8.83;100.00
19526;BME280;9907;42.676;26.348;2023-04-04T03:51:24;97806.75;;;8.87;100.00
19526;BME280;9907;42.676;26.348;2023-04-04T03:53:49;97806.75;;;8.87;100.00
19526;BME280;9907;42.676;26.348;2023-04-04T03:56:15;97801.25;;;8.88;100.00
19526;BME280;9907;42.676;26.348;2023-04-04T03:58:41;97787.75;;;8.82;100.00
19526;BME280;9907;42.676;26.348;2023-04-04T04:01:06;97804.25;;;8.85;100.00
19526;BME280;9907;42.676;26.348;2023-04-04T04:03:32;97804.69;;;8.80;100.00
19526;BME280;9907;42.676;26.348;2023-04-04T04:05:58;97809.56;;;8.85;100.00
19526;BME280;9907;42.676;26.348;2023-04-04T04:08:24;97805.75;;;8.88;100.00
19526;BME280;9907;42.676;26.348;2023-04-04T04:10:49;97806.25;;;8.83;100.00
19526;BME280;9907;42.676;26.348;2023-04-04T04:13:15;97810.22;;;8.87;100.00
19526;BME280;9907;42.676;26.348;2023-04-04T04:15:40;97807.22;;;8.82;100.00
19526;BME280;9907;42.676;26.348;2023-04-04T04:18:06;97805.94;;;8.86;100.00
19526;BME280;9907;42.676;26.348;2023-04-04T04:20:32;97803.59;;;8.91;100.00
19526;BME280;9907;42.676;26.348;2023-04-04T04:22:57;97808.41;;;8.88;100.00
19526;BME280;9907;42.676;26.348;2023-04-04T04:25:22;97800.75;;;8.85;100.00
19526;BME280;9907;42.676;26.348;2023-04-04T04:27:48;97801.13;;;8.90;100.00
19526;BME280;9907;42.676;26.348;2023-04-04T04:30:13;97785.47;;;8.95;100.00
19526;BME280;9907;42.676;26.348;2023-04-04T04:32:39;97785.47;;;8.95;100.00
19526;BME280;9907;42.676;26.348;2023-04-04T04:35:06;97779.88;;;8.98;100.00
19526;BME280;9907;42.676;26.348;2023-04-04T04:37:31;97781.69;;;8.97;100.00
19526;BME280;9907;42.676;26.348;2023-04-04T04:39:57;97786.19;;;8.97;100.00
19526;BME280;9907;42.676;26.348;2023-04-04T04:42:22;97777.41;;;9.04;100.00
19526;BME280;9907;42.676;26.348;2023-04-04T04:44:48;97776.25;;;9.07;100.00
19526;BME280;9907;42.676;26.348;2023-04-04T04:47:13;97781.56;;;9.07;100.00
19526;BME280;9907;42.676;26.348;2023-04-04T04:49:39;97765.06;;;9.03;100.00
19526;BME280;9907;42.676;26.348;2023-04-04T04:52:06;97768.25;;;9.07;100.00
19526;BME280;9907;42.676;26.348;2023-04-04T04:54:31;97754.59;;;9.10;100.00
19526;BME280;9907;42.676;26.348;2023-04-04T04:56:57;97759.09;;;9.09;100.00
19526;BME280;9907;42.676;26.348;2023-04-04T04:59:24;97752.97;;;9.09;100.00
19526;BME280;9907;42.676;26.348;2023-04-04T05:01:50;97749.13;;;9.11;100.00
19526;BME280;9907;42.676;26.348;2023-04-04T05:04:15;97750.31;;;9.17;100.00
19526;BME280;9907;42.676;26.348;2023-04-04T05:06:41;97744.97;;;9.17;100.00
19526;BME280;9907;42.676;26.348;2023-04-04T05:09:07;97733.19;;;9.19;100.00
19526;BME280;9907;42.676;26.348;2023-04-04T05:11:32;97742.69;;;9.22;100.00
19526;BME280;9907;42.676;26.348;2023-04-04T05:13:58;97735.34;;;9.24;100.00
19526;BME280;9907;42.676;26.348;2023-04-04T05:16:23;97746.53;;;9.27;100.00
19526;BME280;9907;42.676;26.348;2023-04-04T05:18:49;97735.34;;;9.24;100.00
19526;BME280;9907;42.676;26.348;2023-04-04T05:21:14;97729.38;;;9.22;100.00
19526;BME280;9907;42.676;26.348;2023-04-04T05:23:40;97728.53;;;9.21;100.00
19526;BME280;9907;42.676;26.348;2023-04-04T05:26:06;97731.72;;;9.25;100.00
19526;BME280;9907;42.676;26.348;2023-04-04T05:28:31;97726.56;;;9.32;100.00
19526;BME280;9907;42.676;26.348;2023-04-04T05:30:57;97717.75;;;9.31;100.00
19526;BME280;9907;42.676;26.348;2023-04-04T05:33:22;97705.75;;;9.35;100.00
19526;BME280;9907;42.676;26.348;2023-04-04T05:35:48;97707.44;;;9.36;100.00
19526;BME280;9907;42.676;26.348;2023-04-04T05:38:13;97712.94;;;9.35;100.00
19526;BME280;9907;42.676;26.348;2023-04-04T05:40:39;97692.13;;;9.38;100.00
19526;BME280;9907;42.676;26.348;2023-04-04T05:43:05;97687.47;;;9.40;100.00
19526;BME280;9907;42.676;26.348;2023-04-04T05:45:30;97694.97;;;9.45;100.00
19526;BME280;9907;42.676;26.348;2023-04-04T05:47:56;97690.31;;;9.47;100.00
19526;BME280;9907;42.676;26.348;2023-04-04T05:50:22;97688.31;;;9.49;100.00
19526;BME280;9907;42.676;26.348;2023-04-04T05:52:47;97695.66;;;9.55;100.00
19526;BME280;9907;42.676;26.348;2023-04-04T05:55:13;97683.81;;;9.57;100.00
19526;BME280;9907;42.676;26.348;2023-04-04T05:57:46;97681.50;;;9.62;100.00
19526;BME280;9907;42.676;26.348;2023-04-04T06:00:12;97678.69;;;9.64;100.00
19526;BME280;9907;42.676;26.348;2023-04-04T06:02:38;97675.84;;;9.65;100.00
19526;BME280;9907;42.676;26.348;2023-04-04T06:05:03;97672.53;;;9.63;100.00
19526;BME280;9907;42.676;26.348;2023-04-04T06:07:29;97674.19;;;9.64;100.00
19526;BME280;9907;42.676;26.348;2023-04-04T06:09:55;97673.69;;;9.69;100.00
19526;BME280;9907;42.676;26.348;2023-04-04T06:12:20;97676.34;;;9.69;100.00
19526;BME280;9907;42.676;26.348;2023-04-04T06:14:46;97679.19;;;9.67;100.00
19526;BME280;9907;42.676;26.348;2023-04-04T06:17:11;97685.53;;;9.66;100.00
19526;BME280;9907;42.676;26.348;2023-04-04T06:19:37;97691.84;;;9.65;100.00
19526;BME280;9907;42.676;26.348;2023-04-04T06:22:02;97685.66;;;9.65;100.00
19526;BME280;9907;42.676;26.348;2023-04-04T06:24:27;97686.00;;;9.62;100.00
19526;BME280;9907;42.676;26.348;2023-04-04T06:26:53;97680.19;;;9.66;100.00
19526;BME280;9907;42.676;26.348;2023-04-04T06:29:19;97676.34;;;9.69;100.00
19526;BME280;9907;42.676;26.348;2023-04-04T06:31:44;97676.53;;;9.75;100.00
19526;BME280;9907;42.676;26.348;2023-04-04T06:34:09;97679.03;;;9.77;100.00
19526;BME280;9907;42.676;26.348;2023-04-04T06:36:35;97676.03;;;9.80;100.00
19526;BME280;9907;42.676;26.348;2023-04-04T06:39:00;97681.03;;;9.83;100.00
19526;BME280;9907;42.676;26.348;2023-04-04T06:41:26;97674.38;;;9.79;100.00
19526;BME280;9907;42.676;26.348;2023-04-04T06:43:52;97668.72;;;9.82;100.00
19526;BME280;9907;42.676;26.348;2023-04-04T06:46:17;97675.53;;;9.85;100.00
19526;BME280;9907;42.676;26.348;2023-04-04T06:48:43;97677.88;;;9.88;100.00
19526;BME280;9907;42.676;26.348;2023-04-04T06:51:09;97691.53;;;9.85;100.00
19526;BME280;9907;42.676;26.348;2023-04-04T06:53:36;97690.22;;;9.89;100.00
19526;BME280;9907;42.676;26.348;2023-04-04T06:56:02;97686.72;;;9.88;100.00
19526;BME280;9907;42.676;26.348;2023-04-04T06:58:27;97687.03;;;9.85;100.00
19526;BME280;9907;42.676;26.348;2023-04-04T07:00:53;97688.88;;;9.85;100.00
19526;BME280;9907;42.676;26.348;2023-04-04T07:03:20;97704.53;;;9.79;100.00
19526;BME280;9907;42.676;26.348;2023-04-04T07:05:47;97704.84;;;9.76;100.00
19526;BME280;9907;42.676;26.348;2023-04-04T07:08:13;97712.53;;;9.71;100.00
19526;BME280;9907;42.676;26.348;2023-04-04T07:10:38;97712.31;;;9.65;100.00
19526;BME280;9907;42.676;26.348;2023-04-04T07:13:04;97714.66;;;9.60;100.00
19526;BME280;9907;42.676;26.348;2023-04-04T07:15:29;97728.31;;;9.65;100.00
19526;BME280;9907;42.676;26.348;2023-04-04T07:17:54;97714.16;;;9.56;100.00
19526;BME280;9907;42.676;26.348;2023-04-04T07:20:20;97706.81;;;9.58;100.00
19526;BME280;9907;42.676;26.348;2023-04-04T07:22:47;97717.50;;;9.58;100.00
19526;BME280;9907;42.676;26.348;2023-04-04T07:25:13;97713.31;;;9.56;100.00
19526;BME280;9907;42.676;26.348;2023-04-04T07:27:38;97717.16;;;9.61;100.00
19526;BME280;9907;42.676;26.348;2023-04-04T07:30:06;97723.81;;;9.57;100.00
19526;BME280;9907;42.676;26.348;2023-04-04T07:32:32;97730.34;;;9.63;100.00
19526;BME280;9907;42.676;26.348;2023-04-04T07:34:57;97724.66;;;9.66;100.00
19526;BME280;9907;42.676;26.348;2023-04-04T07:37:23;97732.31;;;9.61;100.00
19526;BME280;9907;42.676;26.348;2023-04-04T07:39:51;97736.81;;;9.52;100.00
19526;BME280;9907;42.676;26.348;2023-04-04T07:42:17;97742.78;;;9.54;100.00
19526;BME280;9907;42.676;26.348;2023-04-04T07:44:51;97732.97;;;9.55;100.00
19526;BME280;9907;42.676;26.348;2023-04-04T07:47:17;97724.00;;;9.56;100.00
19526;BME280;9907;42.676;26.348;2023-04-04T07:49:43;97718.16;;;9.52;100.00
19526;BME280;9907;42.676;26.348;2023-04-04T07:52:08;97728.16;;;9.58;100.00
19526;BME280;9907;42.676;26.348;2023-04-04T07:54:34;97714.19;;;9.64;100.00
19526;BME280;9907;42.676;26.348;2023-04-04T07:57:00;97716.19;;;9.70;100.00
19526;BME280;9907;42.676;26.348;2023-04-04T07:59:26;97720.84;;;9.76;100.00
19526;BME280;9907;42.676;26.348;2023-04-04T08:01:51;97719.03;;;9.77;100.00
19526;BME280;9907;42.676;26.348;2023-04-04T08:04:17;97715.88;;;9.82;100.00
19526;BME280;9907;42.676;26.348;2023-04-04T08:06:42;97719.69;;;9.87;100.00
19526;BME280;9907;42.676;26.348;2023-04-04T08:09:08;97703.22;;;9.92;100.00
19526;BME280;9907;42.676;26.348;2023-04-04T08:11:34;97707.72;;;9.91;100.00
19526;BME280;9907;42.676;26.348;2023-04-04T08:13:59;97700.56;;;10.00;100.00
19526;BME280;9907;42.676;26.348;2023-04-04T08:16:25;97698.03;;;9.98;100.00
19526;BME280;9907;42.676;26.348;2023-04-04T08:18:50;97705.56;;;10.03;100.00
19526;BME280;9907;42.676;26.348;2023-04-04T08:21:16;97695.03;;;10.09;100.00
19526;BME280;9907;42.676;26.348;2023-04-04T08:23:43;97687.41;;;10.14;100.00
19526;BME280;9907;42.676;26.348;2023-04-04T08:26:09;97691.25;;;10.20;100.00
19526;BME280;9907;42.676;26.348;2023-04-04T08:28:36;97695.09;;;10.25;100.00
19526;BME280;9907;42.676;26.348;2023-04-04T08:31:01;97702.09;;;10.27;100.00
19526;BME280;9907;42.676;26.348;2023-04-04T08:33:28;97708.59;;;10.24;100.00
19526;BME280;9907;42.676;26.348;2023-04-04T08:35:54;97703.25;;;10.24;100.00
19526;BME280;9907;42.676;26.348;2023-04-04T08:38:21;97701.06;;;10.27;100.00
19526;BME280;9907;42.676;26.348;2023-04-04T08:40:47;97698.59;;;10.34;100.00
19526;BME280;9907;42.676;26.348;2023-04-04T08:43:14;97700.25;;;10.35;100.00
19526;BME280;9907;42.676;26.348;2023-04-04T08:45:42;97704.78;;;10.35;100.00
19526;BME280;9907;42.676;26.348;2023-04-04T08:48:09;97719.09;;;10.34;100.00
19526;BME280;9907;42.676;26.348;2023-04-04T08:50:38;97719.09;;;10.34;100.00
19526;BME280;9907;42.676;26.348;2023-04-04T08:53:04;97719.75;;;10.27;100.00
19526;BME280;9907;42.676;26.348;2023-04-04T08:55:30;97724.44;;;10.34;100.00
19526;BME280;9907;42.676;26.348;2023-04-04T08:57:56;97726.13;;;10.35;100.00
19526;BME280;9907;42.676;26.348;2023-04-04T09:00:22;97724.78;;;10.31;100.00
19526;BME280;9907;42.676;26.348;2023-04-04T09:02:54;97725.59;;;10.31;100.00
19526;BME280;9907;42.676;26.348;2023-04-04T09:05:22;97731.13;;;10.38;100.00
19526;BME280;9907;42.676;26.348;2023-04-04T09:07:49;97719.59;;;10.37;100.00
19526;BME280;9907;42.676;26.348;2023-04-04T09:10:15;97735.28;;;10.40;100.00
19526;BME280;9907;42.676;26.348;2023-04-04T09:12:44;97729.59;;;10.43;100.00
19526;BME280;9907;42.676;26.348;2023-04-04T09:15:12;97725.59;;;10.47;100.00
19526;BME280;9907;42.676;26.348;2023-04-04T09:17:38;97730.94;;;10.39;100.00
19526;BME280;9907;42.676;26.348;2023-04-04T09:20:42;97726.94;;;10.43;100.00
19526;BME280;9907;42.676;26.348;2023-04-04T09:23:15;97728.78;;;10.35;100.00
19526;BME280;9907;42.676;26.348;2023-04-04T09:25:51;97734.09;;;10.43;100.00
19526;BME280;9907;42.676;26.348;2023-04-04T09:28:19;97730.59;;;10.42;100.00
19526;BME280;9907;42.676;26.348;2023-04-04T09:30:49;97741.28;;;10.50;100.00
19526;BME280;9907;42.676;26.348;2023-04-04T09:33:16;97731.94;;;10.46;100.00
19526;BME280;9907;42.676;26.348;2023-04-04T09:35:48;97736.13;;;10.49;100.00
19526;BME280;9907;42.676;26.348;2023-04-04T09:38:16;97734.94;;;10.59;100.00
19526;BME280;9907;42.676;26.348;2023-04-04T09:40:43;97741.59;;;10.63;100.00
19526;BME280;9907;42.676;26.348;2023-04-04T09:43:11;97731.91;;;10.70;100.00
19526;BME280;9907;42.676;26.348;2023-04-04T09:45:41;97740.41;;;10.74;100.00
19526;BME280;9907;42.676;26.348;2023-04-04T09:48:09;97740.56;;;10.72;100.00
19526;BME280;9907;42.676;26.348;2023-04-04T09:50:35;97739.22;;;10.85;100.00
19526;BME280;9907;42.676;26.348;2023-04-04T09:53:01;97742.06;;;10.83;100.00
19526;BME280;9907;42.676;26.348;2023-04-04T09:55:36;97750.06;;;10.91;100.00
19526;BME280;9907;42.676;26.348;2023-04-04T09:58:13;97751.06;;;10.90;100.00
19526;BME280;9907;42.676;26.348;2023-04-04T10:00:40;97742.41;;;10.80;100.00
19526;BME280;9907;42.676;26.348;2023-04-04T10:03:07;97748.44;;;10.82;100.00
19526;BME280;9907;42.676;26.348;2023-04-04T10:05:33;97744.06;;;10.81;100.00
19526;BME280;9907;42.676;26.348;2023-04-04T10:07:59;97736.06;;;10.89;100.00
19526;BME280;9907;42.676;26.348;2023-04-04T10:10:28;97738.00;;;11.03;100.00
19526;BME280;9907;42.676;26.348;2023-04-04T10:12:57;97742.31;;;11.12;100.00
19526;BME280;9907;42.676;26.348;2023-04-04T10:15:23;97746.50;;;11.15;100.00
19526;BME280;9907;42.676;26.348;2023-04-04T10:17:52;97751.50;;;11.18;100.00
19526;BME280;9907;42.676;26.348;2023-04-04T10:20:18;97743.31;;;11.19;100.00
19526;BME280;9907;42.676;26.348;2023-04-04T10:22:45;97730.72;;;11.28;100.00
19526;BME280;9907;42.676;26.348;2023-04-04T10:25:11;97745.91;;;11.36;100.00
19526;BME280;9907;42.676;26.348;2023-04-04T10:27:37;97739.06;;;11.41;100.00
19526;BME280;9907;42.676;26.348;2023-04-04T10:30:03;97739.22;;;11.40;100.00
19526;BME280;9907;42.676;26.348;2023-04-04T10:34:59;97729.69;;;11.45;100.00
19526;BME280;9907;42.676;26.348;2023-04-04T10:37:31;97733.88;;;11.40;100.00
19526;BME280;9907;42.676;26.348;2023-04-04T10:40:06;97738.56;;;11.38;100.00
19526;BME280;9907;42.676;26.348;2023-04-04T10:42:38;97727.88;;;11.38;100.00
19526;BME280;9907;42.676;26.348;2023-04-04T10:45:06;97725.53;;;11.35;100.00
19526;BME280;9907;42.676;26.348;2023-04-04T10:47:33;97726.72;;;11.32;100.00
19526;BME280;9907;42.676;26.348;2023-04-04T10:50:00;97722.41;;;11.23;100.00
19526;BME280;9907;42.676;26.348;2023-04-04T10:52:27;97723.78;;;11.19;100.00
19526;BME280;9907;42.676;26.348;2023-04-04T10:55:01;97728.09;;;11.20;100.00
19526;BME280;9907;42.676;26.348;2023-04-04T10:57:28;97726.94;;;11.22;100.00
19526;BME280;9907;42.676;26.348;2023-04-04T11:00:08;97727.44;;;11.18;100.00
19526;BME280;9907;42.676;26.348;2023-04-04T11:07:45;97721.34;;;11.40;100.00
19526;BME280;9907;42.676;26.348;2023-04-04T11:10:15;97719.78;;;11.46;100.00
19526;BME280;9907;42.676;26.348;2023-04-04T11:12:45;97716.56;;;11.58;100.00
19526;BME280;9907;42.676;26.348;2023-04-04T11:15:13;97704.16;;;11.65;100.00
19526;BME280;9907;42.676;26.348;2023-04-04T11:20:29;97720.81;;;11.76;100.00
19526;BME280;9907;42.676;26.348;2023-04-04T11:23:17;97715.78;;;11.81;100.00
19526;BME280;9907;42.676;26.348;2023-04-04T11:25:51;97717.00;;;11.78;100.00
19526;BME280;9907;42.676;26.348;2023-04-04T11:34:05;97705.00;;;11.97;100.00
19526;BME280;9907;42.676;26.348;2023-04-04T11:39:03;97697.28;;;11.94;100.00
19526;BME280;9907;42.676;26.348;2023-04-04T11:44:17;97684.47;;;12.12;100.00
19526;BME280;9907;42.676;26.348;2023-04-04T11:46:44;97689.25;;;12.16;100.00
19526;BME280;9907;42.676;26.348;2023-04-04T11:49:10;97684.31;;;12.28;100.00
19526;BME280;9907;42.676;26.348;2023-04-04T11:51:38;97679.63;;;12.30;100.00
19526;BME280;9907;42.676;26.348;2023-04-04T11:54:05;97683.22;;;12.23;100.00
19526;BME280;9907;42.676;26.348;2023-04-04T11:56:41;97680.91;;;12.34;100.00
19526;BME280;9907;42.676;26.348;2023-04-04T11:59:06;97678.97;;;12.28;100.00
19526;BME280;9907;42.676;26.348;2023-04-04T12:01:32;97668.25;;;12.28;100.00
19526;BME280;9907;42.676;26.348;2023-04-04T12:03:58;97662.03;;;12.50;100.00
19526;BME280;9907;42.676;26.348;2023-04-04T12:06:28;97669.59;;;12.47;100.00
19526;BME280;9907;42.676;26.348;2023-04-04T12:08:53;97665.81;;;12.41;100.00
19526;BME280;9907;42.676;26.348;2023-04-04T12:11:19;97672.16;;;12.40;100.00
19526;BME280;9907;42.676;26.348;2023-04-04T12:13:49;97666.91;;;12.47;100.00
19526;BME280;9907;42.676;26.348;2023-04-04T12:16:18;97670.31;;;12.41;100.00
19526;BME280;9907;42.676;26.348;2023-04-04T12:18:44;97674.00;;;12.40;100.00
19526;BME280;9907;42.676;26.348;2023-04-04T12:21:10;97671.34;;;12.40;100.00
19526;BME280;9907;42.676;26.348;2023-04-04T12:23:36;97655.09;;;12.41;100.00
19526;BME280;9907;42.676;26.348;2023-04-04T12:26:02;97668.50;;;12.56;100.00
19526;BME280;9907;42.676;26.348;2023-04-04T12:28:30;97662.03;;;12.50;100.00
19526;BME280;9907;42.676;26.348;2023-04-04T12:30:59;97670.16;;;12.57;100.00
19526;BME280;9907;42.676;26.348;2023-04-04T12:33:32;97663.63;;;12.59;100.00
19526;BME280;9907;42.676;26.348;2023-04-04T12:35:59;97667.69;;;12.70;100.00
19526;BME280;9907;42.676;26.348;2023-04-04T12:38:25;97655.00;;;12.64;100.00
19526;BME280;9907;42.676;26.348;2023-04-04T12:40:51;97655.00;;;12.64;100.00
19526;BME280;9907;42.676;26.348;2023-04-04T12:43:17;97656.69;;;12.65;100.00
19526;BME280;9907;42.676;26.348;2023-04-04T12:45:43;97651.53;;;12.63;100.00
19526;BME280;9907;42.676;26.348;2023-04-04T12:48:10;97648.25;;;12.53;100.00
19526;BME280;9907;42.676;26.348;2023-04-04T12:50:51;97645.22;;;12.56;100.00
19526;BME280;9907;42.676;26.348;2023-04-04T12:53:27;97637.75;;;12.52;100.00
19526;BME280;9907;42.676;26.348;2023-04-04T12:55:54;97639.69;;;12.73;100.00
19526;BME280;9907;42.676;26.348;2023-04-04T12:58:22;97630.72;;;12.65;100.00
19526;BME280;9907;42.676;26.348;2023-04-04T13:00:49;97626.84;;;12.68;100.00
19526;BME280;9907;42.676;26.348;2023-04-04T13:03:16;97622.88;;;12.79;100.00
19526;BME280;9907;42.676;26.348;2023-04-04T13:05:45;97625.19;;;12.82;100.00
19526;BME280;9907;42.676;26.348;2023-04-04T13:08:11;97630.72;;;12.95;100.00
19526;BME280;9907;42.676;26.348;2023-04-04T13:13:39;97632.84;;;12.99;100.00
19526;BME280;9907;42.676;26.348;2023-04-04T13:18:52;97633.59;;;13.23;100.00
19526;BME280;9907;42.676;26.348;2023-04-04T13:21:18;97617.69;;;13.06;100.00
19526;BME280;9907;42.676;26.348;2023-04-04T13:23:44;97629.78;;;13.02;100.00
19526;BME280;9907;42.676;26.348;2023-04-04T13:26:10;97628.31;;;13.00;100.00